sensor_id;sensor_type;location;lat;lon;timestamp;temperature;humidity
24636;DHT22;12772;49.794;10.024;2024-01-27T00:01:03;8.40;58.30
24636;DHT22;12772;49.794;10.024;2024-01-27T00:05:06;8.20;58.40
24636;DHT22;12772;49.794;10.024;2024-01-27T00:09:08;8.00;58.30
24636;DHT22;12772;49.794;10.024;2024-01-27T00:13:10;8.20;57.70
24636;DHT22;12772;49.794;10.024;2024-01-27T00:17:12;8.00;58.00
24636;DHT22;12772;49.794;10.024;2024-01-27T00:21:14;8.00;58.00
24636;DHT22;12772;49.794;10.024;2024-01-27T00:25:16;7.60;57.70
24636;DHT22;12772;49.794;10.024;2024-01-27T00:29:18;8.00;58.30
24636;DHT22;12772;49.794;10.024;2024-01-27T00:33:21;7.30;58.20
24636;DHT22;12772;49.794;10.024;2024-01-27T00:37:24;7.80;58.90
24636;DHT22;12772;49.794;10.024;2024-01-27T00:41:26;7.40;59.00
24636;DHT22;12772;49.794;10.024;2024-01-27T00:45:28;7.90;59.40
24636;DHT22;12772;49.794;10.024;2024-01-27T00:49:31;7.50;58.90
24636;DHT22;12772;49.794;10.024;2024-01-27T00:53:32;7.20;58.60
24636;DHT22;12772;49.794;10.024;2024-01-27T00:57:36;7.40;59.20
24636;DHT22;12772;49.794;10.024;2024-01-27T01:01:38;7.50;59.60
24636;DHT22;12772;49.794;10.024;2024-01-27T01:05:40;7.00;59.20
24636;DHT22;12772;49.794;10.024;2024-01-27T01:09:42;7.40;59.70
24636;DHT22;12772;49.794;10.024;2024-01-27T01:13:44;7.40;60.00
24636;DHT22;12772;49.794;10.024;2024-01-27T01:17:46;7.40;59.90
24636;DHT22;12772;49.794;10.024;2024-01-27T01:21:49;7.50;60.30
24636;DHT22;12772;49.794;10.024;2024-01-27T01:25:51;7.60;60.30
24636;DHT22;12772;49.794;10.024;2024-01-27T01:29:53;7.20;59.90
24636;DHT22;12772;49.794;10.024;2024-01-27T01:33:55;7.50;60.10
24636;DHT22;12772;49.794;10.024;2024-01-27T01:37:57;7.50;59.80
24636;DHT22;12772;49.794;10.024;2024-01-27T01:41:59;7.30;59.40
24636;DHT22;12772;49.794;10.024;2024-01-27T01:46:01;7.20;59.30
24636;DHT22;12772;49.794;10.024;2024-01-27T01:50:03;7.10;59.00
24636;DHT22;12772;49.794;10.024;2024-01-27T01:54:07;7.60;59.30
24636;DHT22;12772;49.794;10.024;2024-01-27T01:58:09;7.00;58.70
24636;DHT22;12772;49.794;10.024;2024-01-27T02:02:12;6.90;58.60
24636;DHT22;12772;49.794;10.024;2024-01-27T02:06:14;7.30;59.30
24636;DHT22;12772;49.794;10.024;2024-01-27T02:10:17;6.80;58.90
24636;DHT22;12772;49.794;10.024;2024-01-27T02:14:19;7.20;59.30
24636;DHT22;12772;49.794;10.024;2024-01-27T02:18:25;6.60;59.00
24636;DHT22;12772;49.794;10.024;2024-01-27T02:22:27;7.00;59.70
24636;DHT22;12772;49.794;10.024;2024-01-27T02:26:29;6.70;59.40
24636;DHT22;12772;49.794;10.024;2024-01-27T02:30:31;6.60;59.30
24636;DHT22;12772;49.794;10.024;2024-01-27T02:34:33;6.70;59.40
24636;DHT22;12772;49.794;10.024;2024-01-27T02:38:35;6.60;59.10
24636;DHT22;12772;49.794;10.024;2024-01-27T02:42:37;6.80;59.30
24636;DHT22;12772;49.794;10.024;2024-01-27T02:46:41;6.60;59.10
24636;DHT22;12772;49.794;10.024;2024-01-27T02:50:44;6.40;59.20
24636;DHT22;12772;49.794;10.024;2024-01-27T02:54:47;6.90;59.70
24636;DHT22;12772;49.794;10.024;2024-01-27T02:58:48;6.50;59.50
24636;DHT22;12772;49.794;10.024;2024-01-27T03:02:50;6.40;59.50
24636;DHT22;12772;49.794;10.024;2024-01-27T03:06:52;6.50;59.50
24636;DHT22;12772;49.794;10.024;2024-01-27T03:10:54;6.60;59.60
24636;DHT22;12772;49.794;10.024;2024-01-27T03:14:57;7.10;60.00
24636;DHT22;12772;49.794;10.024;2024-01-27T03:18:59;6.40;59.00
24636;DHT22;12772;49.794;10.024;2024-01-27T03:23:01;6.90;59.60
24636;DHT22;12772;49.794;10.024;2024-01-27T03:27:03;6.80;59.60
24636;DHT22;12772;49.794;10.024;2024-01-27T03:31:05;6.80;59.60
24636;DHT22;12772;49.794;10.024;2024-01-27T03:35:07;6.70;59.50
24636;DHT22;12772;49.794;10.024;2024-01-27T03:39:09;6.90;59.60
24636;DHT22;12772;49.794;10.024;2024-01-27T03:43:11;6.70;59.40
24636;DHT22;12772;49.794;10.024;2024-01-27T03:47:14;6.40;58.90
24636;DHT22;12772;49.794;10.024;2024-01-27T03:51:16;6.60;59.10
24636;DHT22;12772;49.794;10.024;2024-01-27T03:55:18;6.60;58.90
24636;DHT22;12772;49.794;10.024;2024-01-27T03:59:20;6.20;58.40
24636;DHT22;12772;49.794;10.024;2024-01-27T04:03:23;6.50;58.80
24636;DHT22;12772;49.794;10.024;2024-01-27T04:07:24;6.10;58.30
24636;DHT22;12772;49.794;10.024;2024-01-27T04:11:28;6.00;58.30
24636;DHT22;12772;49.794;10.024;2024-01-27T04:15:30;6.00;58.30
24636;DHT22;12772;49.794;10.024;2024-01-27T04:19:38;6.40;58.60
24636;DHT22;12772;49.794;10.024;2024-01-27T04:23:40;6.00;58.30
24636;DHT22;12772;49.794;10.024;2024-01-27T04:27:42;6.10;58.50
24636;DHT22;12772;49.794;10.024;2024-01-27T04:31:44;5.90;58.30
24636;DHT22;12772;49.794;10.024;2024-01-27T04:35:46;6.10;58.20
24636;DHT22;12772;49.794;10.024;2024-01-27T04:39:48;6.20;58.80
24636;DHT22;12772;49.794;10.024;2024-01-27T04:43:49;5.70;58.30
24636;DHT22;12772;49.794;10.024;2024-01-27T04:47:54;5.80;58.70
24636;DHT22;12772;49.794;10.024;2024-01-27T04:51:56;5.50;58.70
24636;DHT22;12772;49.794;10.024;2024-01-27T04:55:58;5.60;58.80
24636;DHT22;12772;49.794;10.024;2024-01-27T05:00:00;5.60;58.80
24636;DHT22;12772;49.794;10.024;2024-01-27T05:04:02;5.40;58.80
24636;DHT22;12772;49.794;10.024;2024-01-27T05:08:04;5.60;59.20
24636;DHT22;12772;49.794;10.024;2024-01-27T05:12:07;5.80;59.50
24636;DHT22;12772;49.794;10.024;2024-01-27T05:16:09;5.90;59.50
24636;DHT22;12772;49.794;10.024;2024-01-27T05:20:11;5.70;59.10
24636;DHT22;12772;49.794;10.024;2024-01-27T05:24:13;5.70;59.00
24636;DHT22;12772;49.794;10.024;2024-01-27T05:28:15;5.70;59.10
24636;DHT22;12772;49.794;10.024;2024-01-27T05:32:17;5.50;58.90
24636;DHT22;12772;49.794;10.024;2024-01-27T05:36:19;5.70;59.00
24636;DHT22;12772;49.794;10.024;2024-01-27T05:40:21;5.40;58.40
24636;DHT22;12772;49.794;10.024;2024-01-27T05:44:23;5.50;58.70
24636;DHT22;12772;49.794;10.024;2024-01-27T05:48:25;5.60;59.10
24636;DHT22;12772;49.794;10.024;2024-01-27T05:52:27;5.50;59.10
24636;DHT22;12772;49.794;10.024;2024-01-27T05:56:29;4.90;58.70
24636;DHT22;12772;49.794;10.024;2024-01-27T06:00:31;5.00;58.90
24636;DHT22;12772;49.794;10.024;2024-01-27T06:04:33;5.30;59.70
24636;DHT22;12772;49.794;10.024;2024-01-27T06:08:36;5.30;59.70
24636;DHT22;12772;49.794;10.024;2024-01-27T06:12:39;5.30;59.70
24636;DHT22;12772;49.794;10.024;2024-01-27T06:16:41;5.30;59.60
24636;DHT22;12772;49.794;10.024;2024-01-27T06:20:44;5.30;59.70
24636;DHT22;12772;49.794;10.024;2024-01-27T06:24:46;4.90;59.30
24636;DHT22;12772;49.794;10.024;2024-01-27T06:28:48;4.90;59.30
24636;DHT22;12772;49.794;10.024;2024-01-27T06:32:50;5.00;59.40
24636;DHT22;12772;49.794;10.024;2024-01-27T06:36:52;4.80;59.20
24636;DHT22;12772;49.794;10.024;2024-01-27T06:40:54;5.20;59.60
24636;DHT22;12772;49.794;10.024;2024-01-27T06:44:56;5.40;59.80
24636;DHT22;12772;49.794;10.024;2024-01-27T06:48:58;5.20;59.50
24636;DHT22;12772;49.794;10.024;2024-01-27T06:53:00;5.40;59.70
24636;DHT22;12772;49.794;10.024;2024-01-27T06:57:03;5.10;59.50
24636;DHT22;12772;49.794;10.024;2024-01-27T07:01:06;5.20;59.60
24636;DHT22;12772;49.794;10.024;2024-01-27T07:05:09;5.10;59.80
24636;DHT22;12772;49.794;10.024;2024-01-27T07:09:12;5.10;60.00
24636;DHT22;12772;49.794;10.024;2024-01-27T07:13:14;5.20;59.80
24636;DHT22;12772;49.794;10.024;2024-01-27T07:17:17;5.10;60.00
24636;DHT22;12772;49.794;10.024;2024-01-27T07:21:19;4.80;59.70
24636;DHT22;12772;49.794;10.024;2024-01-27T07:25:21;5.20;60.00
24636;DHT22;12772;49.794;10.024;2024-01-27T07:29:23;4.70;59.90
24636;DHT22;12772;49.794;10.024;2024-01-27T07:33:25;4.80;60.20
24636;DHT22;12772;49.794;10.024;2024-01-27T07:37:27;4.70;60.30
24636;DHT22;12772;49.794;10.024;2024-01-27T07:41:29;5.10;60.70
24636;DHT22;12772;49.794;10.024;2024-01-27T07:45:31;5.10;60.80
24636;DHT22;12772;49.794;10.024;2024-01-27T07:49:33;4.80;60.60
24636;DHT22;12772;49.794;10.024;2024-01-27T07:53:35;5.20;60.70
24636;DHT22;12772;49.794;10.024;2024-01-27T07:57:37;5.30;61.00
24636;DHT22;12772;49.794;10.024;2024-01-27T08:01:40;5.30;61.10
24636;DHT22;12772;49.794;10.024;2024-01-27T08:05:42;4.80;60.80
24636;DHT22;12772;49.794;10.024;2024-01-27T08:09:44;5.10;61.50
24636;DHT22;12772;49.794;10.024;2024-01-27T08:13:46;4.70;61.50
24636;DHT22;12772;49.794;10.024;2024-01-27T08:17:49;4.90;61.80
24636;DHT22;12772;49.794;10.024;2024-01-27T08:21:51;4.90;62.00
24636;DHT22;12772;49.794;10.024;2024-01-27T08:25:53;5.30;62.30
24636;DHT22;12772;49.794;10.024;2024-01-27T08:29:55;5.00;62.10
24636;DHT22;12772;49.794;10.024;2024-01-27T08:33:57;5.30;62.10
24636;DHT22;12772;49.794;10.024;2024-01-27T08:37:58;5.50;62.00
24636;DHT22;12772;49.794;10.024;2024-01-27T08:42:00;5.20;61.90
24636;DHT22;12772;49.794;10.024;2024-01-27T08:46:03;5.30;62.10
24636;DHT22;12772;49.794;10.024;2024-01-27T08:50:05;5.10;62.00
24636;DHT22;12772;49.794;10.024;2024-01-27T08:54:07;5.10;62.30
24636;DHT22;12772;49.794;10.024;2024-01-27T08:58:09;5.80;62.80
24636;DHT22;12772;49.794;10.024;2024-01-27T09:02:11;5.60;62.80
24636;DHT22;12772;49.794;10.024;2024-01-27T09:06:13;5.60;63.10
24636;DHT22;12772;49.794;10.024;2024-01-27T09:10:15;5.30;62.90
24636;DHT22;12772;49.794;10.024;2024-01-27T09:14:18;5.80;63.30
24636;DHT22;12772;49.794;10.024;2024-01-27T09:18:20;5.70;63.20
24636;DHT22;12772;49.794;10.024;2024-01-27T09:22:23;5.80;63.30
24636;DHT22;12772;49.794;10.024;2024-01-27T09:26:25;6.10;63.40
24636;DHT22;12772;49.794;10.024;2024-01-27T09:30:27;6.20;63.40
24636;DHT22;12772;49.794;10.024;2024-01-27T09:34:29;6.40;63.20
24636;DHT22;12772;49.794;10.024;2024-01-27T09:38:31;6.20;62.60
24636;DHT22;12772;49.794;10.024;2024-01-27T09:42:33;6.40;62.30
24636;DHT22;12772;49.794;10.024;2024-01-27T09:46:36;6.20;62.50
24636;DHT22;12772;49.794;10.024;2024-01-27T09:50:41;6.70;62.20
24636;DHT22;12772;49.794;10.024;2024-01-27T09:54:43;6.40;61.90
24636;DHT22;12772;49.794;10.024;2024-01-27T09:58:46;6.60;61.40
24636;DHT22;12772;49.794;10.024;2024-01-27T10:02:48;7.10;61.60
24636;DHT22;12772;49.794;10.024;2024-01-27T10:06:51;7.50;61.90
24636;DHT22;12772;49.794;10.024;2024-01-27T10:10:55;7.20;61.70
24636;DHT22;12772;49.794;10.024;2024-01-27T10:14:57;7.60;61.40
24636;DHT22;12772;49.794;10.024;2024-01-27T10:19:03;7.40;60.50
24636;DHT22;12772;49.794;10.024;2024-01-27T10:23:11;8.00;60.40
24636;DHT22;12772;49.794;10.024;2024-01-27T10:27:13;8.10;59.30
24636;DHT22;12772;49.794;10.024;2024-01-27T10:31:15;8.00;59.10
24636;DHT22;12772;49.794;10.024;2024-01-27T10:35:20;7.90;58.20
24636;DHT22;12772;49.794;10.024;2024-01-27T10:39:23;8.50;58.70
24636;DHT22;12772;49.794;10.024;2024-01-27T10:43:25;8.60;57.40
24636;DHT22;12772;49.794;10.024;2024-01-27T10:47:28;8.60;56.70
24636;DHT22;12772;49.794;10.024;2024-01-27T10:51:31;8.50;56.60
24636;DHT22;12772;49.794;10.024;2024-01-27T10:55:36;9.00;57.10
24636;DHT22;12772;49.794;10.024;2024-01-27T10:59:40;9.20;56.40
24636;DHT22;12772;49.794;10.024;2024-01-27T11:03:43;9.10;55.00
24636;DHT22;12772;49.794;10.024;2024-01-27T11:07:46;9.00;54.40
24636;DHT22;12772;49.794;10.024;2024-01-27T11:11:49;9.20;54.30
24636;DHT22;12772;49.794;10.024;2024-01-27T11:15:54;9.60;53.70
24636;DHT22;12772;49.794;10.024;2024-01-27T11:19:56;9.40;53.30
24636;DHT22;12772;49.794;10.024;2024-01-27T11:23:59;9.70;52.70
24636;DHT22;12772;49.794;10.024;2024-01-27T11:28:14;10.10;51.60
24636;DHT22;12772;49.794;10.024;2024-01-27T11:32:16;10.10;49.80
24636;DHT22;12772;49.794;10.024;2024-01-27T11:36:20;9.90;50.10
24636;DHT22;12772;49.794;10.024;2024-01-27T11:40:23;10.10;49.00
24636;DHT22;12772;49.794;10.024;2024-01-27T11:44:26;10.00;48.00
24636;DHT22;12772;49.794;10.024;2024-01-27T11:48:28;10.20;48.30
24636;DHT22;12772;49.794;10.024;2024-01-27T11:52:30;10.10;47.60
24636;DHT22;12772;49.794;10.024;2024-01-27T11:56:32;10.30;47.50
24636;DHT22;12772;49.794;10.024;2024-01-27T12:00:34;10.30;47.10
24636;DHT22;12772;49.794;10.024;2024-01-27T12:04:36;10.60;46.50
24636;DHT22;12772;49.794;10.024;2024-01-27T12:08:38;10.40;45.70
24636;DHT22;12772;49.794;10.024;2024-01-27T12:12:47;10.80;46.00
24636;DHT22;12772;49.794;10.024;2024-01-27T12:16:50;10.70;44.60
24636;DHT22;12772;49.794;10.024;2024-01-27T12:20:57;11.00;44.90
24636;DHT22;12772;49.794;10.024;2024-01-27T12:25:09;10.70;43.80
24636;DHT22;12772;49.794;10.024;2024-01-27T12:29:11;11.20;44.10
24636;DHT22;12772;49.794;10.024;2024-01-27T12:33:13;11.40;43.80
24636;DHT22;12772;49.794;10.024;2024-01-27T12:37:15;11.50;43.10
24636;DHT22;12772;49.794;10.024;2024-01-27T12:41:17;11.60;43.10
24636;DHT22;12772;49.794;10.024;2024-01-27T12:45:19;11.70;42.20
24636;DHT22;12772;49.794;10.024;2024-01-27T12:49:21;11.80;42.70
24636;DHT22;12772;49.794;10.024;2024-01-27T12:53:23;11.90;42.90
24636;DHT22;12772;49.794;10.024;2024-01-27T12:57:25;12.00;41.70
24636;DHT22;12772;49.794;10.024;2024-01-27T13:01:27;12.10;40.50
24636;DHT22;12772;49.794;10.024;2024-01-27T13:05:29;12.10;39.80
24636;DHT22;12772;49.794;10.024;2024-01-27T13:09:31;12.20;39.40
24636;DHT22;12772;49.794;10.024;2024-01-27T13:13:33;12.30;39.50
24636;DHT22;12772;49.794;10.024;2024-01-27T13:17:35;12.40;38.70
24636;DHT22;12772;49.794;10.024;2024-01-27T13:21:37;12.40;38.70
24636;DHT22;12772;49.794;10.024;2024-01-27T13:25:40;12.50;38.10
24636;DHT22;12772;49.794;10.024;2024-01-27T13:29:42;12.50;38.30
24636;DHT22;12772;49.794;10.024;2024-01-27T13:33:46;12.60;38.40
24636;DHT22;12772;49.794;10.024;2024-01-27T13:37:48;12.60;37.60
24636;DHT22;12772;49.794;10.024;2024-01-27T13:41:50;12.60;37.00
24636;DHT22;12772;49.794;10.024;2024-01-27T13:45:52;12.50;35.90
24636;DHT22;12772;49.794;10.024;2024-01-27T13:49:55;12.40;36.50
24636;DHT22;12772;49.794;10.024;2024-01-27T13:53:58;12.30;36.20
24636;DHT22;12772;49.794;10.024;2024-01-27T13:58:00;12.30;36.10
24636;DHT22;12772;49.794;10.024;2024-01-27T14:02:03;12.30;36.20
24636;DHT22;12772;49.794;10.024;2024-01-27T14:06:05;12.20;35.70
24636;DHT22;12772;49.794;10.024;2024-01-27T14:10:08;12.10;35.70
24636;DHT22;12772;49.794;10.024;2024-01-27T14:14:10;12.10;35.90
24636;DHT22;12772;49.794;10.024;2024-01-27T14:18:12;11.90;35.80
24636;DHT22;12772;49.794;10.024;2024-01-27T14:22:21;11.70;35.50
24636;DHT22;12772;49.794;10.024;2024-01-27T14:26:23;11.20;36.00
24636;DHT22;12772;49.794;10.024;2024-01-27T14:30:25;11.40;37.40
24636;DHT22;12772;49.794;10.024;2024-01-27T14:34:27;11.30;38.00
24636;DHT22;12772;49.794;10.024;2024-01-27T14:38:29;11.30;38.70
24636;DHT22;12772;49.794;10.024;2024-01-27T14:42:32;11.20;39.00
24636;DHT22;12772;49.794;10.024;2024-01-27T14:46:36;11.10;39.50
24636;DHT22;12772;49.794;10.024;2024-01-27T14:50:40;11.10;40.10
24636;DHT22;12772;49.794;10.024;2024-01-27T14:54:42;11.10;40.40
24636;DHT22;12772;49.794;10.024;2024-01-27T14:58:44;11.00;40.50
24636;DHT22;12772;49.794;10.024;2024-01-27T15:02:51;11.00;40.80
24636;DHT22;12772;49.794;10.024;2024-01-27T15:06:54;10.90;40.90
24636;DHT22;12772;49.794;10.024;2024-01-27T15:10:56;11.10;41.60
24636;DHT22;12772;49.794;10.024;2024-01-27T15:14:58;10.80;41.20
24636;DHT22;12772;49.794;10.024;2024-01-27T15:19:00;10.70;41.40
24636;DHT22;12772;49.794;10.024;2024-01-27T15:23:03;10.70;41.50
24636;DHT22;12772;49.794;10.024;2024-01-27T15:27:05;10.20;41.40
24636;DHT22;12772;49.794;10.024;2024-01-27T15:31:07;10.50;42.00
24636;DHT22;12772;49.794;10.024;2024-01-27T15:35:09;10.20;41.90
24636;DHT22;12772;49.794;10.024;2024-01-27T15:39:11;10.40;42.50
24636;DHT22;12772;49.794;10.024;2024-01-27T15:43:13;10.40;42.80
24636;DHT22;12772;49.794;10.024;2024-01-27T15:47:15;10.30;43.00
24636;DHT22;12772;49.794;10.024;2024-01-27T15:51:17;9.90;44.00
24636;DHT22;12772;49.794;10.024;2024-01-27T15:55:19;9.90;44.60
24636;DHT22;12772;49.794;10.024;2024-01-27T15:59:21;9.80;44.80
24636;DHT22;12772;49.794;10.024;2024-01-27T16:03:24;10.10;43.90
24636;DHT22;12772;49.794;10.024;2024-01-27T16:07:26;9.90;44.90
24636;DHT22;12772;49.794;10.024;2024-01-27T16:11:28;9.90;44.90
24636;DHT22;12772;49.794;10.024;2024-01-27T16:15:30;9.90;44.90
24636;DHT22;12772;49.794;10.024;2024-01-27T16:19:32;9.50;45.00
24636;DHT22;12772;49.794;10.024;2024-01-27T16:23:34;9.30;45.10
24636;DHT22;12772;49.794;10.024;2024-01-27T16:27:36;9.70;46.00
24636;DHT22;12772;49.794;10.024;2024-01-27T16:31:38;9.60;46.10
24636;DHT22;12772;49.794;10.024;2024-01-27T16:35:40;9.10;45.90
24636;DHT22;12772;49.794;10.024;2024-01-27T16:39:42;9.60;46.70
24636;DHT22;12772;49.794;10.024;2024-01-27T16:43:44;9.40;46.80
24636;DHT22;12772;49.794;10.024;2024-01-27T16:47:46;9.00;46.80
24636;DHT22;12772;49.794;10.024;2024-01-27T16:51:49;8.70;47.00
24636;DHT22;12772;49.794;10.024;2024-01-27T16:55:51;9.10;47.70
24636;DHT22;12772;49.794;10.024;2024-01-27T16:59:55;9.00;47.80
24636;DHT22;12772;49.794;10.024;2024-01-27T17:03:57;8.60;47.70
24636;DHT22;12772;49.794;10.024;2024-01-27T17:08:00;8.40;47.90
24636;DHT22;12772;49.794;10.024;2024-01-27T17:12:02;8.50;48.20
24636;DHT22;12772;49.794;10.024;2024-01-27T17:16:06;8.70;49.00
24636;DHT22;12772;49.794;10.024;2024-01-27T17:20:09;8.10;48.60
24636;DHT22;12772;49.794;10.024;2024-01-27T17:24:11;8.50;49.40
24636;DHT22;12772;49.794;10.024;2024-01-27T17:28:13;8.50;49.80
24636;DHT22;12772;49.794;10.024;2024-01-27T17:32:15;8.30;49.80
24636;DHT22;12772;49.794;10.024;2024-01-27T17:36:17;8.20;49.80
24636;DHT22;12772;49.794;10.024;2024-01-27T17:40:20;7.70;49.80
24636;DHT22;12772;49.794;10.024;2024-01-27T17:44:23;7.80;50.30
24636;DHT22;12772;49.794;10.024;2024-01-27T17:48:26;8.10;51.10
24636;DHT22;12772;49.794;10.024;2024-01-27T17:52:29;7.80;51.20
24636;DHT22;12772;49.794;10.024;2024-01-27T17:56:31;8.00;51.60
24636;DHT22;12772;49.794;10.024;2024-01-27T18:00:34;7.70;51.50
24636;DHT22;12772;49.794;10.024;2024-01-27T18:04:36;7.40;51.30
24636;DHT22;12772;49.794;10.024;2024-01-27T18:08:38;7.40;51.60
24636;DHT22;12772;49.794;10.024;2024-01-27T18:12:40;7.30;52.10
24636;DHT22;12772;49.794;10.024;2024-01-27T18:16:42;7.00;51.80
24636;DHT22;12772;49.794;10.024;2024-01-27T18:20:44;7.40;52.50
24636;DHT22;12772;49.794;10.024;2024-01-27T18:24:46;7.20;52.50
24636;DHT22;12772;49.794;10.024;2024-01-27T18:28:49;7.20;52.90
24636;DHT22;12772;49.794;10.024;2024-01-27T18:32:51;6.90;52.80
24636;DHT22;12772;49.794;10.024;2024-01-27T18:36:53;7.10;53.10
24636;DHT22;12772;49.794;10.024;2024-01-27T18:40:55;7.40;53.30
24636;DHT22;12772;49.794;10.024;2024-01-27T18:44:57;6.60;52.40
24636;DHT22;12772;49.794;10.024;2024-01-27T18:49:02;6.80;52.70
24636;DHT22;12772;49.794;10.024;2024-01-27T18:53:05;6.90;53.00
24636;DHT22;12772;49.794;10.024;2024-01-27T18:57:07;6.60;53.00
24636;DHT22;12772;49.794;10.024;2024-01-27T19:01:10;6.40;53.10
24636;DHT22;12772;49.794;10.024;2024-01-27T19:05:13;6.30;53.30
24636;DHT22;12772;49.794;10.024;2024-01-27T19:09:16;6.80;54.20
24636;DHT22;12772;49.794;10.024;2024-01-27T19:13:18;6.50;53.90
24636;DHT22;12772;49.794;10.024;2024-01-27T19:17:20;6.20;53.70
24636;DHT22;12772;49.794;10.024;2024-01-27T19:21:22;6.30;54.10
24636;DHT22;12772;49.794;10.024;2024-01-27T19:25:24;6.20;54.20
24636;DHT22;12772;49.794;10.024;2024-01-27T19:29:29;6.60;54.60
24636;DHT22;12772;49.794;10.024;2024-01-27T19:33:40;6.70;54.60
24636;DHT22;12772;49.794;10.024;2024-01-27T19:37:42;6.60;54.60
24636;DHT22;12772;49.794;10.024;2024-01-27T19:41:44;6.20;54.20
24636;DHT22;12772;49.794;10.024;2024-01-27T19:45:46;6.40;54.40
24636;DHT22;12772;49.794;10.024;2024-01-27T19:49:48;6.60;54.60
24636;DHT22;12772;49.794;10.024;2024-01-27T19:53:50;6.10;54.10
24636;DHT22;12772;49.794;10.024;2024-01-27T19:57:52;6.40;54.40
24636;DHT22;12772;49.794;10.024;2024-01-27T20:01:55;6.00;54.00
24636;DHT22;12772;49.794;10.024;2024-01-27T20:05:57;5.90;53.90
24636;DHT22;12772;49.794;10.024;2024-01-27T20:09:59;6.50;54.50
24636;DHT22;12772;49.794;10.024;2024-01-27T20:14:03;6.00;54.00
24636;DHT22;12772;49.794;10.024;2024-01-27T20:18:08;6.10;54.10
24636;DHT22;12772;49.794;10.024;2024-01-27T20:22:10;5.90;53.90
24636;DHT22;12772;49.794;10.024;2024-01-27T20:26:12;5.90;53.90
24636;DHT22;12772;49.794;10.024;2024-01-27T20:30:14;6.30;54.30
24636;DHT22;12772;49.794;10.024;2024-01-27T20:34:17;5.90;53.90
24636;DHT22;12772;49.794;10.024;2024-01-27T20:38:19;6.20;54.20
24636;DHT22;12772;49.794;10.024;2024-01-27T20:42:23;6.10;54.10
24636;DHT22;12772;49.794;10.024;2024-01-27T20:46:25;5.50;54.60
24636;DHT22;12772;49.794;10.024;2024-01-27T20:50:27;5.50;54.40
24636;DHT22;12772;49.794;10.024;2024-01-27T20:54:29;5.50;54.60
24636;DHT22;12772;49.794;10.024;2024-01-27T20:58:31;6.00;55.00
24636;DHT22;12772;49.794;10.024;2024-01-27T21:02:33;5.90;54.80
24636;DHT22;12772;49.794;10.024;2024-01-27T21:06:36;5.60;54.80
24636;DHT22;12772;49.794;10.024;2024-01-27T21:10:38;5.70;55.10
24636;DHT22;12772;49.794;10.024;2024-01-27T21:14:40;5.50;55.30
24636;DHT22;12772;49.794;10.024;2024-01-27T21:18:42;5.80;55.70
24636;DHT22;12772;49.794;10.024;2024-01-27T21:22:44;5.60;55.40
24636;DHT22;12772;49.794;10.024;2024-01-27T21:26:46;5.40;55.40
24636;DHT22;12772;49.794;10.024;2024-01-27T21:30:48;5.40;55.60
24636;DHT22;12772;49.794;10.024;2024-01-27T21:34:50;5.80;56.20
24636;DHT22;12772;49.794;10.024;2024-01-27T21:38:53;6.00;56.50
24636;DHT22;12772;49.794;10.024;2024-01-27T21:42:55;5.60;56.20
24636;DHT22;12772;49.794;10.024;2024-01-27T21:46:57;5.60;56.20
24636;DHT22;12772;49.794;10.024;2024-01-27T21:50:59;5.80;56.50
24636;DHT22;12772;49.794;10.024;2024-01-27T21:55:01;5.70;56.30
24636;DHT22;12772;49.794;10.024;2024-01-27T21:59:03;5.70;56.10
24636;DHT22;12772;49.794;10.024;2024-01-27T22:03:06;5.90;56.10
24636;DHT22;12772;49.794;10.024;2024-01-27T22:07:08;5.80;55.50
24636;DHT22;12772;49.794;10.024;2024-01-27T22:11:10;5.30;55.40
24636;DHT22;12772;49.794;10.024;2024-01-27T22:15:12;5.50;55.60
24636;DHT22;12772;49.794;10.024;2024-01-27T22:19:14;5.60;55.80
24636;DHT22;12772;49.794;10.024;2024-01-27T22:23:16;5.50;55.80
24636;DHT22;12772;49.794;10.024;2024-01-27T22:27:18;5.50;56.00
24636;DHT22;12772;49.794;10.024;2024-01-27T22:31:20;5.10;55.80
24636;DHT22;12772;49.794;10.024;2024-01-27T22:35:22;5.20;56.10
24636;DHT22;12772;49.794;10.024;2024-01-27T22:39:24;4.90;56.00
24636;DHT22;12772;49.794;10.024;2024-01-27T22:43:26;4.80;56.20
24636;DHT22;12772;49.794;10.024;2024-01-27T22:47:30;5.00;56.80
24636;DHT22;12772;49.794;10.024;2024-01-27T22:51:33;4.80;56.90
24636;DHT22;12772;49.794;10.024;2024-01-27T22:55:35;5.30;57.30
24636;DHT22;12772;49.794;10.024;2024-01-27T22:59:38;5.00;57.10
24636;DHT22;12772;49.794;10.024;2024-01-27T23:03:40;4.60;56.90
24636;DHT22;12772;49.794;10.024;2024-01-27T23:07:42;5.10;57.50
24636;DHT22;12772;49.794;10.024;2024-01-27T23:11:44;4.70;57.30
24636;DHT22;12772;49.794;10.024;2024-01-27T23:15:46;4.60;57.40
24636;DHT22;12772;49.794;10.024;2024-01-27T23:19:48;4.70;57.60
24636;DHT22;12772;49.794;10.024;2024-01-27T23:23:50;5.20;58.10
24636;DHT22;12772;49.794;10.024;2024-01-27T23:27:52;4.80;57.70
24636;DHT22;12772;49.794;10.024;2024-01-27T23:31:54;4.90;57.90
24636;DHT22;12772;49.794;10.024;2024-01-27T23:35:56;4.90;57.80
24636;DHT22;12772;49.794;10.024;2024-01-27T23:39:58;5.00;58.00
24636;DHT22;12772;49.794;10.024;2024-01-27T23:44:00;4.80;57.80
24636;DHT22;12772;49.794;10.024;2024-01-27T23:48:02;4.50;57.90
24636;DHT22;12772;49.794;10.024;2024-01-27T23:52:05;4.80;58.70
24636;DHT22;12772;49.794;10.024;2024-01-27T23:56:12;4.80;58.70
